Time;durP1;ratioP1;P1;durP2;ratioP2;P2;SDS_P1;SDS_P2;PMS_P1;PMS_P2;Temp;Humidity;BMP_temperature;BMP_pressure;BME280_temperature;BME280_humidity;BME280_pressure;Samples;Min_cycle;Max_cycle;Signal;HPM_P1;HPM_P2
2022/01/15 00:01:44;;;;;;;18.40;17.00;;;2.70;75.10;;;;;;5093705;28;20404;-73
2022/01/15 00:04:10;;;;;;;17.92;16.75;;;2.60;75.70;;;;;;5092228;28;20024;-70
2022/01/15 00:06:36;;;;;;;18.13;16.50;;;2.50;76.40;;;;;;5093583;28;20027;-74
2022/01/15 00:09:03;;;;;;;18.90;17.17;;;2.50;77.30;;;;;;5093741;28;20076;-73
2022/01/15 00:11:29;;;;;;;19.10;17.30;;;2.40;76.70;;;;;;5092387;28;20107;-73
2022/01/15 00:13:58;;;;;;;16.02;15.00;;;2.40;76.80;;;;;;5093371;28;20118;-70
2022/01/15 00:16:31;;;;;;;15.50;14.48;;;2.50;77.10;;;;;;5093332;28;20057;-74
2022/01/15 00:19:08;;;;;;;15.73;15.02;;;2.50;76.00;;;;;;5093922;28;20354;-70
2022/01/15 00:21:35;;;;;;;15.45;14.65;;;2.60;76.10;;;;;;5092577;28;20454;-70
2022/01/15 00:24:01;;;;;;;15.55;14.68;;;2.70;75.00;;;;;;5093519;28;20032;-71
2022/01/15 00:26:27;;;;;;;15.82;14.60;;;2.80;74.20;;;;;;5093463;28;20031;-72
2022/01/15 00:28:53;;;;;;;13.43;12.85;;;3.00;74.30;;;;;;5093532;28;20024;-75
2022/01/15 00:31:19;;;;;;;14.93;14.23;;;3.00;74.00;;;;;;5093638;28;20466;-76
2022/01/15 00:33:45;;;;;;;14.98;14.18;;;3.10;74.10;;;;;;5091740;28;20073;-70
2022/01/15 00:36:10;;;;;;;17.55;16.00;;;3.20;72.90;;;;;;5093680;28;20051;-73
2022/01/15 00:38:36;;;;;;;16.50;15.40;;;3.30;73.10;;;;;;5092229;28;20023;-74
2022/01/15 00:41:02;;;;;;;16.05;15.07;;;3.40;73.30;;;;;;5092092;28;20369;-75
2022/01/15 00:43:28;;;;;;;13.55;12.95;;;3.40;72.40;;;;;;5094922;28;20020;-71
2022/01/15 00:45:57;;;;;;;12.88;12.27;;;3.40;71.60;;;;;;5097706;28;20020;-70
2022/01/15 00:48:22;;;;;;;16.58;15.68;;;3.40;70.90;;;;;;5096820;28;20024;-73
2022/01/15 00:50:48;;;;;;;21.92;14.55;;;3.40;70.80;;;;;;5097317;28;20024;-70
2022/01/15 00:53:14;;;;;;;14.35;13.60;;;3.40;71.00;;;;;;5096878;28;20059;-71
2022/01/15 00:55:40;;;;;;;14.40;13.70;;;3.50;71.20;;;;;;5096700;28;20035;-69
2022/01/15 00:58:05;;;;;;;13.18;12.55;;;3.50;70.50;;;;;;5095335;28;20031;-70
2022/01/15 01:00:31;;;;;;;14.63;13.65;;;3.50;70.30;;;;;;5096595;28;20027;-71
2022/01/15 01:02:57;;;;;;;15.40;13.88;;;3.50;70.40;;;;;;5095702;28;20024;-72
2022/01/15 01:05:23;;;;;;;15.40;14.63;;;3.50;70.60;;;;;;5097053;28;20103;-70
2022/01/15 01:07:49;;;;;;;13.85;13.07;;;3.50;70.10;;;;;;5095341;28;20056;-70
2022/01/15 01:23:26;;;;;;;16.02;15.23;;;3.30;70.70;;;;;;5096394;28;20016;-71
2022/01/15 01:25:58;;;;;;;13.68;12.93;;;3.20;71.00;;;;;;5095036;28;20024;-71
2022/01/15 01:28:32;;;;;;;13.95;13.35;;;3.20;71.40;;;;;;5095175;28;20043;-71
2022/01/15 01:33:37;;;;;;;13.60;13.00;;;3.10;71.50;;;;;;5096016;28;20020;-72
2022/01/15 01:38:55;;;;;;;13.90;13.38;;;2.90;72.20;;;;;;5096157;28;20046;-73
2022/01/15 01:41:22;;;;;;;13.52;12.98;;;2.90;72.40;;;;;;5095978;28;20430;-71
2022/01/15 01:43:56;;;;;;;14.52;13.82;;;2.80;72.50;;;;;;5095874;28;20018;-70
2022/01/15 01:48:56;;;;;;;13.23;12.48;;;2.80;72.60;;;;;;5095897;28;20441;-73
2022/01/15 01:51:35;;;;;;;14.88;13.38;;;2.70;72.50;;;;;;5095821;28;20019;-72
2022/01/15 01:54:04;;;;;;;13.73;12.82;;;2.70;72.50;;;;;;5095673;28;20101;-73
2022/01/15 01:56:31;;;;;;;17.45;16.42;;;2.70;72.80;;;;;;5096070;28;20024;-73
2022/01/15 01:58:57;;;;;;;15.18;14.27;;;2.80;72.60;;;;;;5094731;28;20363;-73
2022/01/15 02:01:24;;;;;;;15.00;14.27;;;2.80;72.50;;;;;;5095871;28;20095;-72
2022/01/15 02:03:49;;;;;;;14.57;13.77;;;2.80;72.30;;;;;;5094237;28;20365;-71
2022/01/15 02:06:15;;;;;;;15.38;13.82;;;2.80;71.90;;;;;;5094172;28;20020;-72
2022/01/15 02:08:41;;;;;;;16.05;15.10;;;2.80;71.30;;;;;;5095440;28;20024;-71
2022/01/15 02:11:07;;;;;;;13.35;12.77;;;2.80;71.40;;;;;;5095421;28;20031;-70
2022/01/15 02:13:39;;;;;;;14.00;13.23;;;2.80;71.50;;;;;;5094100;28;20020;-73
2022/01/15 02:16:04;;;;;;;14.70;14.00;;;2.80;72.00;;;;;;5095412;28;20098;-70
2022/01/15 02:18:30;;;;;;;15.57;14.75;;;2.80;71.40;;;;;;5095325;28;20028;-71
2022/01/15 02:23:43;;;;;;;15.38;14.23;;;2.90;71.60;;;;;;5095268;28;20024;-70
2022/01/15 02:26:10;;;;;;;15.18;14.10;;;2.80;71.70;;;;;;5094235;28;20336;-74
2022/01/15 02:28:41;;;;;;;15.30;14.32;;;2.80;71.90;;;;;;5094619;28;20024;-71
2022/01/15 02:31:14;;;;;;;12.77;12.15;;;2.80;72.10;;;;;;5095037;28;20463;-71
2022/01/15 02:33:40;;;;;;;13.32;12.82;;;2.80;72.10;;;;;;5094847;28;20024;-71
2022/01/15 02:36:14;;;;;;;17.27;15.32;;;2.80;72.20;;;;;;5095333;28;20048;-72
2022/01/15 02:38:41;;;;;;;15.45;14.50;;;2.80;72.30;;;;;;5095126;28;20452;-72
2022/01/15 02:41:07;;;;;;;15.98;14.77;;;2.80;72.30;;;;;;5093152;28;20447;-72
2022/01/15 02:43:34;;;;;;;14.93;14.23;;;2.70;72.20;;;;;;5094978;28;20024;-75
2022/01/15 02:48:44;;;;;;;15.38;14.57;;;2.70;72.30;;;;;;5094797;28;20020;-71
2022/01/15 02:51:11;;;;;;;16.35;15.55;;;2.70;72.30;;;;;;5094657;28;20028;-73
2022/01/15 02:53:37;;;;;;;16.50;15.20;;;2.70;72.40;;;;;;5093206;28;20111;-71
2022/01/15 02:56:03;;;;;;;15.13;14.52;;;2.70;72.60;;;;;;5094504;28;20103;-70
2022/01/15 02:58:28;;;;;;;15.38;14.57;;;2.80;72.70;;;;;;5092973;28;20111;-71
2022/01/15 03:00:54;;;;;;;13.38;12.77;;;2.80;72.70;;;;;;5094252;28;20474;-73
2022/01/15 03:03:20;;;;;;;15.57;14.68;;;2.70;72.60;;;;;;5094496;28;20454;-72
2022/01/15 03:05:46;;;;;;;14.82;13.90;;;2.80;72.60;;;;;;5094025;28;20378;-72
2022/01/15 03:08:12;;;;;;;15.50;14.50;;;2.80;72.30;;;;;;5093373;28;20016;-72
2022/01/15 03:10:37;;;;;;;15.90;15.10;;;2.80;72.20;;;;;;5094255;28;20055;-71
2022/01/15 03:13:10;;;;;;;15.13;14.20;;;2.70;71.90;;;;;;5094116;28;20470;-69
2022/01/15 03:15:36;;;;;;;13.93;12.98;;;2.70;72.00;;;;;;5094512;28;20032;-74
2022/01/15 03:18:02;;;;;;;15.48;14.48;;;2.70;71.90;;;;;;5094133;28;20331;-71
2022/01/15 03:20:28;;;;;;;14.40;13.75;;;2.70;71.60;;;;;;5094220;28;20027;-73
2022/01/15 03:22:53;;;;;;;14.70;13.93;;;2.70;71.50;;;;;;5094197;28;20024;-71
2022/01/15 03:25:21;;;;;;;16.10;15.35;;;2.70;71.30;;;;;;5094107;28;20020;-72
2022/01/15 03:27:46;;;;;;;17.58;16.60;;;2.70;71.30;;;;;;5094595;28;20016;-72
2022/01/15 03:30:13;;;;;;;15.48;14.68;;;2.70;70.70;;;;;;5094688;28;20024;-72
2022/01/15 03:32:43;;;;;;;13.18;12.52;;;2.70;70.90;;;;;;5096411;28;20031;-73
2022/01/15 03:35:13;;;;;;;16.25;15.50;;;2.70;70.70;;;;;;5094272;28;20047;-72
2022/01/15 03:37:40;;;;;;;15.55;14.85;;;2.70;70.50;;;;;;5092727;28;20027;-74
2022/01/15 03:40:08;;;;;;;14.30;13.70;;;2.80;70.10;;;;;;5092730;28;20111;-73
2022/01/15 03:42:33;;;;;;;14.98;14.27;;;2.80;70.20;;;;;;5093833;28;20017;-72
2022/01/15 03:44:59;;;;;;;15.50;14.80;;;2.90;69.40;;;;;;5093743;28;20046;-71
2022/01/15 03:47:25;;;;;;;14.10;13.52;;;2.90;69.60;;;;;;5092929;28;20020;-72
2022/01/15 03:49:51;;;;;;;14.07;13.45;;;3.00;69.00;;;;;;5092642;28;20020;-73
2022/01/15 03:52:17;;;;;;;13.40;12.88;;;3.00;68.80;;;;;;5092428;28;20024;-74
2022/01/15 03:54:42;;;;;;;15.50;14.27;;;3.00;68.80;;;;;;5093995;28;20024;-72
2022/01/15 03:57:08;;;;;;;13.82;13.23;;;3.10;68.20;;;;;;5092475;28;20021;-74
2022/01/15 03:59:34;;;;;;;15.63;14.93;;;3.10;68.10;;;;;;5093583;28;20035;-72
2022/01/15 04:02:00;;;;;;;16.83;16.05;;;3.10;68.20;;;;;;5092517;28;20047;-74
2022/01/15 04:04:25;;;;;;;14.15;13.65;;;3.10;68.20;;;;;;5093731;28;20027;-72
2022/01/15 04:06:51;;;;;;;15.15;14.55;;;3.10;68.50;;;;;;5093892;28;20031;-73
2022/01/15 04:09:19;;;;;;;13.98;13.27;;;3.10;68.70;;;;;;5093744;28;20458;-73
2022/01/15 04:11:46;;;;;;;14.35;13.75;;;3.20;68.90;;;;;;5093676;28;20020;-74
2022/01/15 04:14:11;;;;;;;13.52;12.93;;;3.20;69.00;;;;;;5092376;28;20339;-73
2022/01/15 04:16:37;;;;;;;13.45;12.85;;;3.20;69.10;;;;;;5093601;28;20035;-70
2022/01/15 04:19:03;;;;;;;14.80;13.80;;;3.20;69.10;;;;;;5097688;28;20453;-72
2022/01/15 04:21:29;;;;;;;12.48;11.95;;;3.20;69.30;;;;;;5096203;28;20031;-71
2022/01/15 04:23:55;;;;;;;14.02;13.30;;;3.10;69.30;;;;;;5097504;28;20020;-71
2022/01/15 04:26:26;;;;;;;13.65;13.10;;;3.10;69.50;;;;;;5097551;28;20024;-70
2022/01/15 04:29:02;;;;;;;13.35;12.85;;;3.10;69.30;;;;;;5097546;28;20020;-72
2022/01/15 04:31:27;;;;;;;15.52;14.82;;;3.10;69.60;;;;;;5097379;28;20569;-72
2022/01/15 04:33:53;;;;;;;14.40;13.40;;;3.10;69.70;;;;;;5097160;28;20045;-72
2022/01/15 04:36:19;;;;;;;14.45;13.65;;;3.10;69.60;;;;;;5096934;28;20106;-74
2022/01/15 04:38:45;;;;;;;13.02;12.43;;;3.10;69.70;;;;;;5097083;28;20020;-71
2022/01/15 04:41:10;;;;;;;12.95;12.35;;;3.10;69.70;;;;;;5098089;28;20111;-71
2022/01/15 04:43:36;;;;;;;14.20;13.50;;;3.10;69.50;;;;;;5116065;28;20020;-73
2022/01/15 04:46:03;;;;;;;14.30;13.30;;;3.10;69.70;;;;;;5117454;27;20065;-72
2022/01/15 04:48:29;;;;;;;14.13;13.15;;;3.10;69.80;;;;;;5116103;28;20020;-71
2022/01/15 04:50:54;;;;;;;15.85;14.95;;;3.10;69.60;;;;;;5116485;28;20360;-73
2022/01/15 04:53:20;;;;;;;15.63;14.68;;;3.10;69.70;;;;;;5116019;28;20115;-74
2022/01/15 04:55:46;;;;;;;13.88;13.07;;;3.00;69.90;;;;;;5115852;28;20028;-73
2022/01/15 04:58:12;;;;;;;14.40;13.75;;;3.10;70.00;;;;;;5117622;28;20015;-73
2022/01/15 05:00:38;;;;;;;15.15;14.25;;;3.00;69.90;;;;;;5117380;28;20445;-73
2022/01/15 05:03:04;;;;;;;14.80;13.80;;;3.00;70.10;;;;;;5115806;28;20110;-72
2022/01/15 05:05:31;;;;;;;17.10;16.00;;;3.00;70.20;;;;;;5117177;28;20085;-71
2022/01/15 05:07:57;;;;;;;15.15;14.50;;;3.00;70.30;;;;;;5116966;28;20032;-74
2022/01/15 05:10:27;;;;;;;14.15;13.40;;;2.90;70.40;;;;;;5109973;28;20024;-73
2022/01/15 05:13:37;;;;;;;17.58;16.75;;;2.90;70.20;;;;;;5070299;28;20878;-71
2022/01/15 05:16:04;;;;;;;15.73;15.13;;;3.00;70.60;;;;;;5070692;28;20379;-73
2022/01/15 05:18:30;;;;;;;18.08;17.20;;;2.90;70.40;;;;;;5069536;28;20485;-72
2022/01/15 05:20:57;;;;;;;16.67;15.88;;;2.90;70.40;;;;;;5070395;28;20021;-74
2022/01/15 05:23:22;;;;;;;16.42;15.43;;;2.90;70.70;;;;;;5070685;28;20043;-72
2022/01/15 05:25:48;;;;;;;16.13;15.00;;;2.90;70.40;;;;;;5070637;28;20055;-74
2022/01/15 05:28:14;;;;;;;16.83;15.75;;;2.90;70.20;;;;;;5070052;28;20025;-72
2022/01/15 05:30:39;;;;;;;14.57;13.95;;;2.90;70.20;;;;;;5070348;28;20033;-73
2022/01/15 05:33:05;;;;;;;19.05;17.83;;;2.90;70.40;;;;;;5069560;28;20028;-73
2022/01/15 05:35:31;;;;;;;14.50;13.80;;;3.00;70.20;;;;;;5068798;28;20052;-72
2022/01/15 05:37:57;;;;;;;16.45;15.65;;;3.00;70.20;;;;;;5068441;28;20077;-68
2022/01/15 05:40:24;;;;;;;18.50;17.45;;;3.10;69.80;;;;;;5066257;28;20048;-74
2022/01/15 05:42:50;;;;;;;15.10;14.50;;;3.00;69.50;;;;;;5054879;28;20032;-70
2022/01/15 05:45:16;;;;;;;16.95;16.05;;;3.10;69.50;;;;;;5047653;28;20029;-73
2022/01/15 05:47:42;;;;;;;15.52;13.60;;;3.10;69.20;;;;;;5047183;28;20036;-73
2022/01/15 05:50:08;;;;;;;16.25;15.20;;;3.20;69.10;;;;;;5048411;28;20021;-72
2022/01/15 05:52:34;;;;;;;15.93;15.05;;;3.20;68.90;;;;;;5037690;28;20483;-73
2022/01/15 05:55:00;;;;;;;15.43;14.52;;;3.10;68.50;;;;;;5038671;28;20025;-65
2022/01/15 05:57:26;;;;;;;15.55;14.82;;;3.20;68.50;;;;;;5036706;28;20073;-65
2022/01/15 05:59:52;;;;;;;15.85;15.15;;;3.20;68.60;;;;;;5038258;28;20075;-67
2022/01/15 06:02:19;;;;;;;13.98;13.30;;;3.20;68.70;;;;;;5038632;28;20021;-66
2022/01/15 06:04:45;;;;;;;15.48;14.73;;;3.30;68.30;;;;;;5041920;28;20025;-74
2022/01/15 06:07:10;;;;;;;15.80;15.13;;;3.30;68.30;;;;;;5077590;28;20086;-72
2022/01/15 06:09:36;;;;;;;15.30;14.15;;;3.40;68.10;;;;;;5039428;28;20028;-69
2022/01/15 06:12:02;;;;;;;16.10;14.60;;;3.40;67.60;;;;;;5035671;28;20053;-72
2022/01/15 06:14:29;;;;;;;14.15;13.25;;;3.40;67.60;;;;;;5039224;28;20040;-68
2022/01/15 06:16:55;;;;;;;15.68;14.73;;;3.50;67.90;;;;;;5044905;28;20059;-74
2022/01/15 06:19:21;;;;;;;14.15;13.40;;;3.50;67.60;;;;;;5075503;28;20045;-76
2022/01/15 06:21:47;;;;;;;15.55;14.63;;;3.50;67.70;;;;;;5074865;28;20036;-73
2022/01/15 06:24:13;;;;;;;16.33;15.40;;;3.60;67.60;;;;;;5062429;28;20026;-76
2022/01/15 06:26:39;;;;;;;14.45;13.73;;;3.60;67.70;;;;;;5025368;28;20093;-80
2022/01/15 06:29:05;;;;;;;13.38;12.40;;;3.70;67.50;;;;;;5025495;28;20022;-76
2022/01/15 06:31:31;;;;;;;14.68;13.88;;;3.60;67.20;;;;;;5034792;28;20087;-77
2022/01/15 06:34:00;;;;;;;16.30;15.40;;;3.70;67.40;;;;;;5033867;28;20025;-77
2022/01/15 06:36:26;;;;;;;14.60;13.80;;;3.70;67.60;;;;;;5036488;28;20516;-74
2022/01/15 06:38:52;;;;;;;13.63;12.82;;;3.80;67.50;;;;;;5023756;28;20053;-72
2022/01/15 06:41:18;;;;;;;13.80;13.10;;;3.80;67.40;;;;;;5024819;28;20100;-69
2022/01/15 06:43:43;;;;;;;14.77;13.77;;;3.80;67.10;;;;;;5024705;28;20080;-75
2022/01/15 06:46:09;;;;;;;17.13;15.70;;;3.80;67.30;;;;;;5056080;28;20425;-70
2022/01/15 06:48:35;;;;;;;14.43;13.55;;;3.80;67.30;;;;;;5023558;28;20026;-75
2022/01/15 06:51:01;;;;;;;13.30;12.00;;;3.80;67.30;;;;;;5034111;28;20104;-73
2022/01/15 06:53:27;;;;;;;14.00;13.10;;;3.90;67.20;;;;;;5033134;28;20479;-72
2022/01/15 06:55:53;;;;;;;15.38;14.65;;;3.90;66.70;;;;;;5034149;28;20030;-72
2022/01/15 06:58:19;;;;;;;15.38;14.48;;;3.90;66.30;;;;;;5034202;28;20026;-70
2022/01/15 07:00:46;;;;;;;28.13;19.83;;;3.90;66.10;;;;;;5027856;28;20032;-72
2022/01/15 07:03:12;;;;;;;24.55;21.52;;;3.90;66.40;;;;;;5034537;28;20450;-70
2022/01/15 07:05:37;;;;;;;18.40;16.88;;;4.00;66.60;;;;;;5032545;28;20104;-72
2022/01/15 07:08:03;;;;;;;17.25;15.95;;;4.00;66.40;;;;;;5032455;28;20025;-72
2022/01/15 07:10:29;;;;;;;20.33;18.88;;;4.00;66.50;;;;;;5033382;28;20029;-72
2022/01/15 07:12:55;;;;;;;19.27;18.08;;;4.00;66.70;;;;;;5032384;28;20623;-74
2022/01/15 07:15:21;;;;;;;15.60;14.60;;;4.10;66.80;;;;;;5033522;28;20097;-73
2022/01/15 07:17:48;;;;;;;19.40;18.38;;;4.10;66.60;;;;;;5033416;28;20025;-74
2022/01/15 07:20:17;;;;;;;15.32;14.55;;;4.00;66.50;;;;;;5033141;28;20025;-71
2022/01/15 07:22:43;;;;;;;15.00;14.20;;;4.00;66.80;;;;;;5026312;28;20425;-74
2022/01/15 07:25:09;;;;;;;15.43;14.32;;;4.00;66.70;;;;;;5025296;28;20025;-74
2022/01/15 07:27:36;;;;;;;16.40;15.40;;;4.10;67.00;;;;;;5024349;28;20159;-72
2022/01/15 07:30:03;;;;;;;14.50;13.80;;;4.10;67.00;;;;;;5058136;28;20025;-74
2022/01/15 07:32:29;;;;;;;15.13;14.32;;;4.00;66.60;;;;;;5030308;28;20127;-64
2022/01/15 07:34:55;;;;;;;15.25;14.10;;;4.10;66.70;;;;;;5054247;28;20172;-66
2022/01/15 07:37:21;;;;;;;14.57;13.48;;;4.10;66.80;;;;;;5033097;28;20099;-65
2022/01/15 07:39:46;;;;;;;13.48;12.77;;;4.10;67.00;;;;;;5032104;28;20109;-64
2022/01/15 07:42:13;;;;;;;15.57;14.77;;;4.20;67.10;;;;;;5030960;28;20033;-65
2022/01/15 07:44:39;;;;;;;19.80;16.25;;;4.30;66.40;;;;;;5032184;28;20021;-64
2022/01/15 07:47:05;;;;;;;17.30;16.55;;;4.30;66.50;;;;;;5033276;28;20028;-64
2022/01/15 07:49:32;;;;;;;15.48;14.73;;;4.30;66.30;;;;;;5032716;28;20107;-65
2022/01/15 07:51:58;;;;;;;16.77;15.30;;;4.30;66.00;;;;;;5048021;28;20041;-64
2022/01/15 07:54:24;;;;;;;16.38;15.45;;;4.30;66.20;;;;;;5016276;28;20018;-64
2022/01/15 07:56:54;;;;;;;17.35;16.13;;;4.40;66.00;;;;;;5018347;28;20518;-64
2022/01/15 07:59:21;;;;;;;24.85;19.67;;;4.50;65.90;;;;;;5030975;28;20045;-64
2022/01/15 08:01:46;;;;;;;16.00;15.00;;;4.60;66.20;;;;;;5033447;28;20036;-63
2022/01/15 08:04:12;;;;;;;14.27;13.30;;;4.60;65.60;;;;;;5030761;28;20030;-63
2022/01/15 08:06:41;;;;;;;17.45;16.00;;;4.60;64.90;;;;;;5032961;28;20030;-63
2022/01/15 08:09:08;;;;;;;16.73;15.20;;;4.70;64.70;;;;;;5031522;28;20056;-64
2022/01/15 08:11:34;;;;;;;17.58;16.30;;;4.70;65.00;;;;;;5030429;28;20488;-68
2022/01/15 08:14:00;;;;;;;22.13;19.80;;;4.80;64.50;;;;;;5032062;28;20108;-65
2022/01/15 08:16:26;;;;;;;17.20;15.85;;;4.80;64.00;;;;;;5019366;28;20112;-62
2022/01/15 08:18:51;;;;;;;20.48;18.88;;;4.80;63.60;;;;;;5030853;28;20083;-66
2022/01/15 08:21:17;;;;;;;17.05;15.90;;;4.80;62.80;;;;;;5031775;28;20022;-64
2022/01/15 08:23:43;;;;;;;14.30;13.30;;;4.80;62.80;;;;;;5029223;28;20084;-63
2022/01/15 08:26:08;;;;;;;15.40;14.55;;;4.90;62.70;;;;;;5021804;28;20050;-64
2022/01/15 08:28:34;;;;;;;17.48;16.30;;;4.80;62.40;;;;;;5055815;28;20053;-65
2022/01/15 08:31:00;;;;;;;15.93;15.07;;;4.90;62.10;;;;;;5025723;28;20033;-63
2022/01/15 08:33:26;;;;;;;15.32;14.63;;;4.90;61.80;;;;;;5065459;28;20038;-65
2022/01/15 08:35:52;;;;;;;17.83;16.88;;;4.90;61.70;;;;;;5030325;28;20022;-64
2022/01/15 08:38:17;;;;;;;17.05;15.65;;;5.00;61.40;;;;;;5024154;28;20056;-63
2022/01/15 08:40:43;;;;;;;14.68;13.88;;;4.90;60.90;;;;;;5014255;28;20109;-67
2022/01/15 08:43:09;;;;;;;18.40;17.02;;;5.00;61.40;;;;;;5018354;28;20028;-65
2022/01/15 08:45:38;;;;;;;26.48;23.85;;;5.00;61.40;;;;;;5024888;28;20030;-65
2022/01/15 08:48:04;;;;;;;21.50;18.95;;;5.10;61.60;;;;;;5031006;28;20018;-65
2022/01/15 08:50:30;;;;;;;36.78;25.75;;;5.10;61.50;;;;;;5029796;28;20159;-65
2022/01/15 08:52:55;;;;;;;25.70;19.33;;;5.10;59.70;;;;;;5030604;28;20142;-65
2022/01/15 08:55:21;;;;;;;64.72;37.35;;;5.00;59.30;;;;;;5032053;28;20013;-66
2022/01/15 08:57:47;;;;;;;66.00;40.05;;;5.00;58.90;;;;;;5029607;28;20520;-66
2022/01/15 09:00:16;;;;;;;23.60;19.80;;;5.10;59.70;;;;;;5029874;28;20022;-64
2022/01/15 09:02:42;;;;;;;20.60;18.83;;;5.10;59.90;;;;;;5030909;28;20033;-64
2022/01/15 09:05:08;;;;;;;19.30;18.02;;;5.10;59.90;;;;;;5011663;28;20377;-65
2022/01/15 09:07:34;;;;;;;55.92;32.15;;;5.20;59.10;;;;;;5011329;28;20038;-63
2022/01/15 09:10:04;;;;;;;128.52;62.55;;;5.20;58.50;;;;;;5011737;28;20080;-65
2022/01/15 09:12:29;;;;;;;42.42;28.75;;;5.20;58.30;;;;;;5026901;28;20064;-66
2022/01/15 09:15:03;;;;;;;18.23;17.05;;;5.30;58.80;;;;;;5030313;28;20021;-64
2022/01/15 09:17:29;;;;;;;45.42;30.38;;;5.30;58.30;;;;;;5029987;28;20538;-64
2022/01/15 09:19:55;;;;;;;21.98;19.80;;;5.30;58.90;;;;;;5029212;28;20017;-65
2022/01/15 09:22:21;;;;;;;54.70;33.22;;;5.30;58.90;;;;;;5021669;28;20025;-65
2022/01/15 09:24:47;;;;;;;85.43;48.08;;;5.30;58.70;;;;;;5029459;28;20026;-65
2022/01/15 09:30:15;;;;;;;17.80;16.38;;;5.40;59.90;;;;;;5029657;28;20036;-63
2022/01/15 09:32:47;;;;;;;40.75;28.05;;;5.40;58.80;;;;;;5053618;28;20045;-68
2022/01/15 09:35:15;;;;;;;33.17;25.92;;;5.30;58.80;;;;;;5028727;28;20021;-67
2022/01/15 09:37:41;;;;;;;43.75;29.00;;;5.30;58.80;;;;;;5030479;28;20089;-66
2022/01/15 09:40:09;;;;;;;22.50;20.05;;;5.30;59.20;;;;;;5029206;28;20030;-68
2022/01/15 09:42:37;;;;;;;18.38;17.15;;;5.30;59.40;;;;;;5019869;28;20022;-67
2022/01/15 09:45:04;;;;;;;33.88;27.52;;;5.30;59.80;;;;;;5019785;28;20034;-66
2022/01/15 09:47:31;;;;;;;18.23;16.77;;;5.30;60.00;;;;;;5020616;28;20037;-66
2022/01/15 09:49:58;;;;;;;19.98;17.95;;;5.30;60.00;;;;;;5052339;28;20026;-67
2022/01/15 09:52:24;;;;;;;81.95;43.85;;;5.40;60.30;;;;;;5028590;28;20175;-65
2022/01/15 09:54:50;;;;;;;18.55;17.02;;;5.40;60.50;;;;;;5030361;28;20037;-66
2022/01/15 09:57:17;;;;;;;20.85;19.48;;;5.50;60.50;;;;;;5030183;28;20052;-66
2022/01/15 09:59:43;;;;;;;29.08;25.95;;;5.50;60.40;;;;;;5031568;28;20064;-66
2022/01/15 10:02:09;;;;;;;21.23;19.55;;;5.40;60.30;;;;;;5024116;28;20025;-67
2022/01/15 10:04:35;;;;;;;31.48;27.27;;;5.40;60.40;;;;;;5023669;28;20026;-67
2022/01/15 10:07:07;;;;;;;17.92;16.70;;;5.50;60.60;;;;;;5023276;28;20021;-66
2022/01/15 10:09:33;;;;;;;18.30;16.73;;;5.40;60.30;;;;;;5033472;28;20029;-66
2022/01/15 10:11:59;;;;;;;14.93;13.85;;;5.50;60.60;;;;;;5033790;28;20072;-67
2022/01/15 10:14:27;;;;;;;16.70;15.60;;;5.50;59.80;;;;;;5033743;28;20075;-66
2022/01/15 10:16:55;;;;;;;40.55;29.45;;;5.50;59.80;;;;;;5023738;28;20477;-65
2022/01/15 10:19:32;;;;;;;34.00;24.33;;;5.50;59.90;;;;;;5023270;28;20024;-65
2022/01/15 10:22:15;;;;;;;22.83;20.33;;;5.50;59.30;;;;;;5032648;28;20030;-66
2022/01/15 10:24:59;;;;;;;15.20;14.27;;;5.50;59.70;;;;;;5032739;28;20040;-65
2022/01/15 10:27:31;;;;;;;24.58;22.02;;;5.60;60.00;;;;;;5033276;28;20464;-64
2022/01/15 10:30:01;;;;;;;31.27;24.13;;;5.60;59.60;;;;;;5032229;28;20025;-64
2022/01/15 10:32:29;;;;;;;15.27;14.23;;;5.60;59.30;;;;;;5055823;28;20044;-66
2022/01/15 10:34:56;;;;;;;20.17;18.23;;;5.50;59.30;;;;;;5022497;28;20107;-66
2022/01/15 10:37:25;;;;;;;26.58;20.35;;;5.50;59.50;;;;;;5029343;28;20025;-66
2022/01/15 10:39:58;;;;;;;14.77;13.77;;;5.50;59.40;;;;;;5031984;28;20380;-64
2022/01/15 10:42:25;;;;;;;13.55;12.45;;;5.40;59.50;;;;;;5028145;28;20483;-65
2022/01/15 10:44:52;;;;;;;17.40;16.00;;;5.40;59.40;;;;;;5058304;28;20025;-65
2022/01/15 10:47:20;;;;;;;34.53;23.30;;;5.40;59.90;;;;;;5029713;28;20029;-63
2022/01/15 10:49:46;;;;;;;20.90;19.25;;;5.40;60.10;;;;;;5031455;28;20030;-64
2022/01/15 10:52:24;;;;;;;17.83;16.58;;;5.40;60.20;;;;;;5033820;28;20056;-65
2022/01/15 10:55:05;;;;;;;19.48;17.73;;;5.50;60.40;;;;;;5032646;28;20028;-65
2022/01/15 10:57:39;;;;;;;42.33;28.38;;;5.40;60.30;;;;;;5029859;28;20044;-65
2022/01/15 11:00:04;;;;;;;18.23;16.63;;;5.50;60.80;;;;;;5030209;28;20025;-64
2022/01/15 11:02:30;;;;;;;41.80;29.88;;;5.50;60.70;;;;;;5053737;28;20033;-65
2022/01/15 11:04:57;;;;;;;52.17;35.80;;;5.50;61.00;;;;;;5022769;28;20030;-65
2022/01/15 11:07:22;;;;;;;20.73;19.00;;;5.50;61.00;;;;;;5020256;28;20026;-67
2022/01/15 11:09:53;;;;;;;17.15;15.80;;;5.50;60.90;;;;;;5056018;28;20017;-66
2022/01/15 11:12:25;;;;;;;33.78;28.83;;;5.40;61.00;;;;;;5057487;28;20057;-66
2022/01/15 11:14:51;;;;;;;41.22;29.42;;;5.40;61.20;;;;;;5023530;28;20017;-66
2022/01/15 11:17:17;;;;;;;19.30;18.02;;;5.40;61.60;;;;;;5032455;28;20033;-65
2022/01/15 11:19:44;;;;;;;16.80;15.70;;;5.30;61.60;;;;;;5029622;28;20029;-67
2022/01/15 11:22:10;;;;;;;21.30;19.42;;;5.40;61.90;;;;;;5028781;28;20045;-65
2022/01/15 11:24:37;;;;;;;19.63;17.92;;;5.40;61.80;;;;;;5026225;28;20028;-66
2022/01/15 11:27:04;;;;;;;18.80;17.13;;;5.30;61.90;;;;;;5028171;28;20034;-64
2022/01/15 11:29:30;;;;;;;19.38;17.67;;;5.30;62.00;;;;;;5048797;28;20103;-65
2022/01/15 11:32:00;;;;;;;18.27;16.48;;;5.30;62.20;;;;;;5028706;28;20119;-67
2022/01/15 11:34:27;;;;;;;23.58;21.15;;;5.20;62.50;;;;;;5030490;28;20388;-68
2022/01/15 11:36:54;;;;;;;18.30;17.35;;;5.20;62.90;;;;;;5029901;28;20155;-66
2022/01/15 11:39:35;;;;;;;18.50;17.27;;;5.20;62.90;;;;;;5028506;28;20033;-66
2022/01/15 11:42:03;;;;;;;17.58;16.23;;;5.20;63.20;;;;;;5048942;28;20029;-66
2022/01/15 11:44:29;;;;;;;15.07;13.73;;;5.30;63.10;;;;;;5030128;28;20080;-66
2022/01/15 11:46:57;;;;;;;18.25;16.60;;;5.30;63.10;;;;;;5029814;28;20044;-65
2022/01/15 11:49:30;;;;;;;19.17;17.90;;;5.30;63.10;;;;;;5048681;28;20026;-65
2022/01/15 11:52:05;;;;;;;15.80;14.70;;;5.30;63.10;;;;;;5029206;28;20022;-66
2022/01/15 11:54:31;;;;;;;19.92;18.73;;;5.40;63.00;;;;;;5029230;28;20084;-66
2022/01/15 11:57:01;;;;;;;16.35;15.15;;;5.40;63.00;;;;;;5031656;28;20125;-64
2022/01/15 11:59:26;;;;;;;17.02;15.57;;;5.40;62.90;;;;;;5030309;28;20049;-65
2022/01/15 12:02:02;;;;;;;16.83;15.85;;;5.50;62.80;;;;;;5031316;28;20539;-65
2022/01/15 12:04:38;;;;;;;18.42;16.98;;;5.50;62.70;;;;;;5028962;28;20032;-65
2022/01/15 12:07:06;;;;;;;19.45;17.73;;;5.50;62.60;;;;;;5030177;28;20039;-65
2022/01/15 12:09:52;;;;;;;13.23;12.35;;;5.40;62.50;;;;;;5030426;28;20053;-65
2022/01/15 12:12:18;;;;;;;16.10;15.02;;;5.40;62.50;;;;;;5029873;28;20488;-66
2022/01/15 12:14:52;;;;;;;17.83;16.52;;;5.30;62.30;;;;;;5028272;28;20025;-65
2022/01/15 12:17:31;;;;;;;13.93;12.93;;;5.30;62.30;;;;;;5031199;28;20057;-65
2022/01/15 12:19:59;;;;;;;15.63;14.63;;;5.30;62.30;;;;;;5029730;28;20071;-66
2022/01/15 12:22:36;;;;;;;20.45;18.83;;;5.40;62.50;;;;;;5027981;28;20029;-65
2022/01/15 12:25:04;;;;;;;13.65;12.65;;;5.40;62.50;;;;;;5031371;28;20017;-67
2022/01/15 12:27:31;;;;;;;15.40;14.38;;;5.50;62.40;;;;;;5020887;28;20419;-65
2022/01/15 12:30:10;;;;;;;15.77;14.48;;;5.50;62.30;;;;;;5052600;28;20062;-65
2022/01/15 12:32:41;;;;;;;17.33;14.75;;;5.40;62.00;;;;;;5031080;28;20061;-67
2022/01/15 12:35:18;;;;;;;14.93;14.10;;;5.30;62.20;;;;;;5028225;28;20036;-67
2022/01/15 12:38:07;;;;;;;18.38;16.67;;;5.40;62.40;;;;;;5029210;28;20025;-66
2022/01/15 12:40:43;;;;;;;15.80;14.50;;;5.40;62.50;;;;;;5023351;28;20021;-66
2022/01/15 12:43:16;;;;;;;16.02;15.15;;;5.30;62.60;;;;;;5018295;28;20468;-65
2022/01/15 12:45:46;;;;;;;13.40;12.50;;;5.20;62.90;;;;;;5021174;28;20029;-65
2022/01/15 12:48:17;;;;;;;13.77;12.85;;;5.10;63.20;;;;;;5022541;28;20018;-66
2022/01/15 12:50:45;;;;;;;15.27;14.00;;;5.00;63.60;;;;;;5018992;28;20079;-66
2022/01/15 12:53:13;;;;;;;18.65;17.23;;;5.00;64.00;;;;;;5027412;28;20419;-66
2022/01/15 12:55:40;;;;;;;16.48;15.43;;;5.00;64.20;;;;;;5024548;28;20490;-67
2022/01/15 12:58:08;;;;;;;16.63;15.63;;;5.00;64.40;;;;;;5029934;28;20137;-66
2022/01/15 13:00:36;;;;;;;15.48;14.60;;;5.00;64.70;;;;;;5029351;28;20024;-66
2022/01/15 13:03:06;;;;;;;17.75;16.75;;;4.80;65.80;;;;;;5028517;28;20380;-62
2022/01/15 13:05:52;;;;;;;17.02;15.95;;;4.60;66.40;;;;;;5052738;28;20064;-64
2022/01/15 13:08:22;;;;;;;15.18;14.45;;;4.60;66.90;;;;;;5028382;28;20029;-64